Decoded Metar for VOBL (Bengaluru in INDIA) (IATA:N/A) | Meteo·Mobile Aviation Weather
aviador You're here:

VOBL Decoded Metar

Bengaluru in INDIA
Report Time2019-01-16 18:00:00
UTC Time2019-01-16 18:21:23
Flight Rules mvfr MVFR
Wind100° at 04 kt
W.Decomp.*RWY 09: 3.9 kt HW 0.8 kt RCW
W.Rank100° ranks 7
Current wind is below 100° avg. (6.6)
Visibility6000 m
Phenomena:N/A
Clouds:N/A
Expected CloudBase > 1,600 ft AGL from Temp-Dew spread
CeilingNone
Temp17°C (ISA +8)
Dew Point13°C (77% RH)
AAT16.5°C
QNH1019 hPa
Density Alt3,944 ft
Elevation3,002 ft
Report Wrong Elevation
Raw Report
METAR VOBL 161800Z 10004KT 6000 NSC 17/13 Q1019 NOSIG=

Extra information for VOBL:More info

Metar Taf Metar & Taf Last 4 Metars F.Rules Stats Wind Profile Meteogram Temp Stats Airport Information Weather charts Add Link Nearby VenuesMetar ALERT Operation Metar Decoded Social comments